Time;durP1;ratioP1;P1;durP2;ratioP2;P2;SDS_P1;SDS_P2;PMS_P1;PMS_P2;Temp;Humidity;BMP_temperature;BMP_pressure;BME280_temperature;BME280_humidity;BME280_pressure;Samples;Min_cycle;Max_cycle;Signal;HPM_P1;HPM_P2
2023/01/07 00:00:01;;;;;;;21.02;9.65;;;;;;;;;;4941879;29;20050;-81
2023/01/07 00:02:38;;;;;;;10.93;6.80;;;;;;;;;;4942355;29;20054;-82
2023/01/07 00:05:05;;;;;;;11.88;6.80;;;;;;;;;;4938822;29;20035;-84
2023/01/07 00:07:33;;;;;;;8.50;5.22;;;;;;;;;;4939859;29;20099;-81
2023/01/07 00:10:00;;;;;;;5.68;4.40;;;;;;;;;;4951195;28;20091;-86
2023/01/07 00:12:27;;;;;;;8.25;4.47;;;;;;;;;;4941728;29;20058;-81
2023/01/07 00:14:54;;;;;;;6.20;4.47;;;;;;;;;;4934388;29;20414;-81
2023/01/07 00:17:22;;;;;;;7.88;4.95;;;;;;;;;;4936411;29;20052;-84
2023/01/07 00:19:49;;;;;;;7.07;4.97;;;;;;;;;;4941741;29;20118;-82
2023/01/07 00:22:16;;;;;;;5.72;4.28;;;;;;;;;;4937606;29;20039;-82
2023/01/07 00:24:43;;;;;;;8.80;4.50;;;;;;;;;;4929218;29;20573;-82
2023/01/07 00:27:11;;;;;;;7.32;4.65;;;;;;;;;;4943827;28;20091;-81
2023/01/07 00:29:38;;;;;;;8.20;5.15;;;;;;;;;;4931817;29;20048;-81
2023/01/07 00:32:05;;;;;;;6.45;4.50;;;;;;;;;;4931284;29;20075;-82
2023/01/07 00:34:33;;;;;;;8.57;5.05;;;;;;;;;;4937203;29;20044;-83
2023/01/07 00:39:47;;;;;;;7.43;4.32;;;;;;;;;;4935058;29;20127;-81
2023/01/07 00:45:00;;;;;;;4.30;3.90;;;;;;;;;;4928362;29;20523;-81
2023/01/07 00:47:27;;;;;;;3.53;3.10;;;;;;;;;;4933987;29;20092;-81
2023/01/07 00:49:54;;;;;;;3.28;2.97;;;;;;;;;;4933457;29;20048;-81
2023/01/07 00:52:21;;;;;;;3.03;2.83;;;;;;;;;;4939583;29;20506;-81
2023/01/07 00:54:49;;;;;;;3.08;2.72;;;;;;;;;;4937698;29;20359;-81
2023/01/07 00:57:16;;;;;;;4.07;3.00;;;;;;;;;;4937920;29;20106;-81
2023/01/07 00:59:43;;;;;;;3.20;2.90;;;;;;;;;;4932719;29;20051;-84
2023/01/07 01:02:11;;;;;;;3.63;2.92;;;;;;;;;;4932091;29;20062;-81
2023/01/07 01:04:38;;;;;;;3.22;2.92;;;;;;;;;;4936721;29;20418;-81
2023/01/07 01:07:09;;;;;;;4.05;3.42;;;;;;;;;;4939876;29;20277;-81
2023/01/07 01:09:36;;;;;;;3.47;3.17;;;;;;;;;;4938243;29;20059;-82
2023/01/07 01:12:03;;;;;;;3.85;3.17;;;;;;;;;;4938668;29;20051;-84
2023/01/07 01:14:30;;;;;;;3.17;2.95;;;;;;;;;;4931348;29;20044;-81
2023/01/07 01:16:58;;;;;;;3.67;3.17;;;;;;;;;;4936553;29;20130;-83
2023/01/07 01:19:25;;;;;;;3.90;3.17;;;;;;;;;;4938302;29;20055;-82
2023/01/07 01:21:53;;;;;;;2.75;2.55;;;;;;;;;;4932822;29;20513;-80
2023/01/07 01:24:20;;;;;;;3.33;3.03;;;;;;;;;;4927965;29;20052;-81
2023/01/07 01:26:47;;;;;;;3.28;2.95;;;;;;;;;;4936990;29;20047;-82
2023/01/07 01:29:15;;;;;;;5.22;2.88;;;;;;;;;;4941693;29;20048;-81
2023/01/07 01:31:42;;;;;;;3.65;3.35;;;;;;;;;;4939501;29;20396;-82
2023/01/07 01:34:09;;;;;;;3.40;3.20;;;;;;;;;;4944764;29;20043;-80
2023/01/07 01:36:37;;;;;;;3.20;2.90;;;;;;;;;;4948602;29;20056;-83
2023/01/07 01:39:04;;;;;;;6.60;3.65;;;;;;;;;;4945599;28;20052;-81
2023/01/07 01:41:36;;;;;;;5.28;3.70;;;;;;;;;;4936325;29;20047;-81
2023/01/07 01:44:22;;;;;;;5.32;4.25;;;;;;;;;;4938905;29;20047;-83
2023/01/07 01:46:49;;;;;;;6.07;4.80;;;;;;;;;;4937206;29;20058;-82
2023/01/07 01:49:23;;;;;;;6.57;5.45;;;;;;;;;;4939419;29;20062;-81
2023/01/07 01:51:54;;;;;;;8.13;6.05;;;;;;;;;;4936823;29;20055;-81
2023/01/07 01:54:22;;;;;;;11.43;6.40;;;;;;;;;;4938393;29;20054;-81
2023/01/07 01:56:53;;;;;;;8.10;5.80;;;;;;;;;;4931531;29;20124;-82
2023/01/07 01:59:23;;;;;;;13.90;5.78;;;;;;;;;;4928788;29;20079;-81
2023/01/07 02:01:53;;;;;;;7.60;5.35;;;;;;;;;;4922519;29;20244;-81
2023/01/07 02:04:22;;;;;;;8.65;5.68;;;;;;;;;;4926661;29;20048;-81
2023/01/07 02:06:52;;;;;;;7.30;4.80;;;;;;;;;;4937065;29;20039;-81
2023/01/07 02:09:19;;;;;;;7.45;5.25;;;;;;;;;;4937587;29;20051;-81
2023/01/07 02:11:59;;;;;;;12.05;5.70;;;;;;;;;;4934991;29;20051;-81
2023/01/07 02:14:29;;;;;;;4.20;3.28;;;;;;;;;;4925664;29;20088;-81
2023/01/07 02:17:18;;;;;;;3.83;3.53;;;;;;;;;;4938552;29;20513;-82
2023/01/07 02:19:52;;;;;;;4.72;3.28;;;;;;;;;;4932439;29;20052;-82
2023/01/07 02:22:30;;;;;;;3.63;3.17;;;;;;;;;;4938078;29;20288;-81
2023/01/07 02:24:57;;;;;;;7.05;3.72;;;;;;;;;;4927174;29;20082;-81
2023/01/07 02:27:44;;;;;;;3.30;3.00;;;;;;;;;;4938355;29;20054;-81
2023/01/07 02:30:20;;;;;;;5.57;3.17;;;;;;;;;;4935197;29;20466;-81
2023/01/07 02:33:02;;;;;;;3.45;3.15;;;;;;;;;;4926829;29;20046;-81
2023/01/07 02:35:38;;;;;;;3.38;3.17;;;;;;;;;;4936209;29;20063;-81
2023/01/07 02:38:06;;;;;;;2.92;2.72;;;;;;;;;;4937614;29;20048;-81
2023/01/07 02:40:36;;;;;;;3.47;3.20;;;;;;;;;;4936076;29;20154;-81
2023/01/07 02:43:04;;;;;;;4.00;2.80;;;;;;;;;;4935028;29;20075;-81
2023/01/07 02:45:35;;;;;;;3.00;2.80;;;;;;;;;;4936962;29;20133;-81
2023/01/07 02:48:04;;;;;;;2.78;2.58;;;;;;;;;;4937054;29;20044;-81
2023/01/07 02:50:33;;;;;;;3.15;2.92;;;;;;;;;;4942080;29;20044;-82
2023/01/07 02:53:01;;;;;;;3.45;3.15;;;;;;;;;;4935014;29;20044;-80
2023/01/07 02:55:36;;;;;;;4.80;2.67;;;;;;;;;;4937300;29;20084;-82
2023/01/07 02:58:18;;;;;;;3.03;2.72;;;;;;;;;;4941774;29;20051;-80
2023/01/07 03:01:05;;;;;;;7.68;3.78;;;;;;;;;;4941352;29;20047;-81
2023/01/07 03:03:51;;;;;;;3.65;3.35;;;;;;;;;;4941200;29;20569;-81
2023/01/07 03:06:30;;;;;;;4.82;3.35;;;;;;;;;;4939584;29;20072;-82
2023/01/07 03:09:10;;;;;;;3.92;3.17;;;;;;;;;;4940078;29;20469;-81
2023/01/07 03:11:41;;;;;;;3.20;2.90;;;;;;;;;;4939551;29;20040;-81
2023/01/07 03:14:14;;;;;;;3.47;3.17;;;;;;;;;;4933111;29;20470;-81
2023/01/07 03:16:43;;;;;;;3.78;2.70;;;;;;;;;;4930548;29;20051;-80
2023/01/07 03:19:16;;;;;;;3.00;2.78;;;;;;;;;;4929090;29;20048;-82
2023/01/07 03:21:45;;;;;;;2.90;2.60;;;;;;;;;;4935722;29;20044;-82
2023/01/07 03:24:14;;;;;;;3.53;2.80;;;;;;;;;;4936200;29;20048;-82
2023/01/07 03:26:48;;;;;;;3.17;2.88;;;;;;;;;;4935140;29;20048;-81
2023/01/07 03:29:17;;;;;;;4.68;2.85;;;;;;;;;;4930753;29;20050;-82
2023/01/07 03:31:56;;;;;;;3.15;2.95;;;;;;;;;;4927929;29;20403;-80
2023/01/07 03:34:26;;;;;;;3.25;2.95;;;;;;;;;;4933051;29;20052;-81
2023/01/07 03:36:59;;;;;;;3.25;2.95;;;;;;;;;;4923163;29;20044;-80
2023/01/07 03:39:28;;;;;;;3.03;2.67;;;;;;;;;;4935161;29;20048;-81
2023/01/07 03:44:42;;;;;;;3.03;2.78;;;;;;;;;;4934255;29;20052;-82
2023/01/07 03:47:11;;;;;;;3.00;2.80;;;;;;;;;;4927981;29;20036;-81
2023/01/07 03:49:39;;;;;;;2.85;2.65;;;;;;;;;;4934245;29;20091;-82
2023/01/07 03:52:07;;;;;;;2.70;2.50;;;;;;;;;;4934000;29;20072;-81
2023/01/07 03:54:35;;;;;;;3.30;3.00;;;;;;;;;;4933926;29;20039;-80
2023/01/07 03:57:02;;;;;;;2.60;2.45;;;;;;;;;;4932865;29;20413;-82
2023/01/07 03:59:30;;;;;;;4.28;2.42;;;;;;;;;;4934466;29;20059;-82
2023/01/07 04:01:57;;;;;;;3.17;2.92;;;;;;;;;;4934177;29;20051;-81
2023/01/07 04:04:25;;;;;;;6.05;3.25;;;;;;;;;;4932331;29;20091;-82
2023/01/07 04:06:53;;;;;;;4.57;2.85;;;;;;;;;;4928021;29;20052;-80
2023/01/07 04:09:20;;;;;;;3.30;3.05;;;;;;;;;;4933744;29;20050;-82
2023/01/07 04:11:48;;;;;;;3.40;2.70;;;;;;;;;;4933561;29;20039;-80
2023/01/07 04:14:16;;;;;;;3.08;2.88;;;;;;;;;;4940107;23;20047;-84
2023/01/07 04:16:44;;;;;;;3.33;3.03;;;;;;;;;;4927011;29;20036;-84
2023/01/07 04:19:12;;;;;;;3.05;2.85;;;;;;;;;;4930863;29;20119;-84
2023/01/07 04:21:40;;;;;;;3.13;2.85;;;;;;;;;;4933231;29;20188;-85
2023/01/07 04:24:08;;;;;;;3.33;3.05;;;;;;;;;;4930062;29;20050;-85
2023/01/07 04:26:36;;;;;;;2.78;2.58;;;;;;;;;;4925425;29;20507;-84
2023/01/07 04:29:03;;;;;;;4.75;3.30;;;;;;;;;;4932275;29;20039;-84
2023/01/07 04:31:31;;;;;;;4.18;2.90;;;;;;;;;;4928338;29;20048;-83
2023/01/07 04:33:59;;;;;;;5.85;3.00;;;;;;;;;;4922261;29;20048;-83
2023/01/07 04:36:27;;;;;;;3.28;2.97;;;;;;;;;;4921582;29;20051;-84
2023/01/07 04:38:55;;;;;;;4.35;2.88;;;;;;;;;;4930321;29;20040;-83
2023/01/07 04:41:22;;;;;;;2.78;2.58;;;;;;;;;;4922050;29;20096;-83
2023/01/07 04:43:50;;;;;;;4.07;3.15;;;;;;;;;;4922093;29;20392;-84
2023/01/07 04:46:17;;;;;;;2.88;2.67;;;;;;;;;;4928308;29;20044;-84
2023/01/07 04:48:45;;;;;;;3.08;2.88;;;;;;;;;;4930022;29;20043;-84
2023/01/07 04:51:12;;;;;;;5.50;3.20;;;;;;;;;;4928202;29;20131;-84
2023/01/07 04:53:40;;;;;;;4.35;3.10;;;;;;;;;;4929829;29;20051;-84
2023/01/07 04:56:08;;;;;;;3.10;2.90;;;;;;;;;;4922884;29;20070;-84
2023/01/07 04:58:38;;;;;;;3.00;2.80;;;;;;;;;;4924427;29;20127;-84
2023/01/07 05:01:05;;;;;;;4.40;2.80;;;;;;;;;;4926959;29;20075;-84
2023/01/07 05:03:34;;;;;;;4.13;3.40;;;;;;;;;;4930703;29;20135;-83
2023/01/07 05:06:02;;;;;;;3.50;3.20;;;;;;;;;;4924585;29;20047;-83
2023/01/07 05:08:31;;;;;;;3.05;2.85;;;;;;;;;;4923695;29;20047;-83
2023/01/07 05:10:59;;;;;;;3.97;2.95;;;;;;;;;;4926703;29;20159;-84
2023/01/07 05:13:27;;;;;;;4.35;3.00;;;;;;;;;;4935541;29;20644;-85
2023/01/07 05:15:54;;;;;;;5.38;2.90;;;;;;;;;;4927922;29;20047;-84
2023/01/07 05:18:22;;;;;;;2.70;2.50;;;;;;;;;;4923855;29;20461;-84
2023/01/07 05:20:51;;;;;;;3.03;2.83;;;;;;;;;;4926545;29;20058;-84
2023/01/07 05:23:18;;;;;;;3.00;2.80;;;;;;;;;;4930494;29;20044;-83
2023/01/07 05:25:48;;;;;;;3.13;2.63;;;;;;;;;;4928112;29;20055;-83
2023/01/07 05:28:15;;;;;;;3.28;2.97;;;;;;;;;;4930456;29;20047;-83
2023/01/07 05:30:45;;;;;;;3.17;2.88;;;;;;;;;;4916441;29;20040;-84
2023/01/07 05:33:15;;;;;;;5.00;3.80;;;;;;;;;;4929726;29;20043;-84
2023/01/07 05:35:43;;;;;;;4.15;3.00;;;;;;;;;;4922860;29;20055;-84
2023/01/07 05:38:11;;;;;;;5.85;3.33;;;;;;;;;;4931376;29;20511;-84
2023/01/07 05:40:40;;;;;;;2.80;2.60;;;;;;;;;;4939781;29;20047;-83
2023/01/07 05:43:08;;;;;;;3.47;3.17;;;;;;;;;;4930532;29;20519;-85
2023/01/07 05:45:36;;;;;;;3.45;3.25;;;;;;;;;;4929147;29;20048;-84
2023/01/07 05:48:03;;;;;;;3.35;3.10;;;;;;;;;;4931492;29;20488;-84
2023/01/07 05:50:31;;;;;;;3.55;3.25;;;;;;;;;;4932458;29;20836;-84
2023/01/07 05:52:59;;;;;;;3.53;2.90;;;;;;;;;;4932241;29;20131;-85
2023/01/07 05:55:26;;;;;;;3.50;3.30;;;;;;;;;;4930714;29;20050;-85
2023/01/07 05:57:54;;;;;;;3.30;3.00;;;;;;;;;;4926487;29;20132;-84
2023/01/07 06:00:22;;;;;;;5.50;3.60;;;;;;;;;;4928812;29;20047;-84
2023/01/07 06:02:49;;;;;;;3.40;3.10;;;;;;;;;;4927365;29;20618;-82
2023/01/07 06:05:17;;;;;;;3.03;2.72;;;;;;;;;;4923422;29;20036;-84
2023/01/07 06:07:44;;;;;;;3.20;3.00;;;;;;;;;;4934681;29;20523;-84
2023/01/07 06:10:11;;;;;;;3.13;2.92;;;;;;;;;;4926411;29;20563;-84
2023/01/07 06:12:39;;;;;;;2.92;2.72;;;;;;;;;;4931402;29;20106;-83
2023/01/07 06:15:06;;;;;;;3.25;3.05;;;;;;;;;;4924581;29;20415;-84
2023/01/07 06:17:34;;;;;;;3.70;3.28;;;;;;;;;;4928479;29;20172;-84
2023/01/07 06:20:02;;;;;;;3.15;2.95;;;;;;;;;;4928696;29;20405;-84
2023/01/07 06:22:29;;;;;;;3.50;3.20;;;;;;;;;;4931802;29;20122;-84
2023/01/07 06:24:56;;;;;;;3.53;3.15;;;;;;;;;;4928534;29;20071;-84
2023/01/07 06:27:24;;;;;;;3.22;2.95;;;;;;;;;;4929303;29;20055;-84
2023/01/07 06:29:52;;;;;;;3.03;2.83;;;;;;;;;;4930194;29;20075;-85
2023/01/07 06:32:19;;;;;;;2.70;2.50;;;;;;;;;;4929736;29;20471;-83
2023/01/07 06:34:46;;;;;;;3.08;2.78;;;;;;;;;;4929286;29;20491;-85
2023/01/07 06:37:14;;;;;;;3.13;2.88;;;;;;;;;;4931649;29;20134;-85
2023/01/07 06:39:42;;;;;;;3.47;2.83;;;;;;;;;;4930394;29;20427;-84
2023/01/07 06:42:09;;;;;;;2.97;2.78;;;;;;;;;;4930247;29;20126;-84
2023/01/07 06:44:37;;;;;;;4.38;2.70;;;;;;;;;;4931216;29;20063;-84
2023/01/07 06:47:04;;;;;;;3.00;2.70;;;;;;;;;;4930983;29;20044;-84
2023/01/07 06:49:32;;;;;;;3.17;2.90;;;;;;;;;;4932524;29;20058;-83
2023/01/07 06:51:59;;;;;;;2.90;2.63;;;;;;;;;;4925167;29;20490;-84
2023/01/07 06:54:27;;;;;;;2.70;2.50;;;;;;;;;;4924429;29;20052;-84
2023/01/07 06:56:54;;;;;;;3.40;3.10;;;;;;;;;;4933402;29;20859;-83
2023/01/07 06:59:22;;;;;;;3.33;3.03;;;;;;;;;;4927147;29;20574;-84
2023/01/07 07:01:49;;;;;;;3.00;2.80;;;;;;;;;;4926386;29;20054;-84
2023/01/07 07:04:17;;;;;;;3.50;3.20;;;;;;;;;;4925038;29;20134;-83
2023/01/07 07:06:47;;;;;;;3.60;3.30;;;;;;;;;;4933456;29;20086;-84
2023/01/07 07:09:17;;;;;;;6.00;3.60;;;;;;;;;;4931898;29;20052;-84
2023/01/07 07:11:44;;;;;;;5.18;4.55;;;;;;;;;;4929157;29;20131;-83
2023/01/07 07:14:12;;;;;;;5.05;4.47;;;;;;;;;;4925241;29;20051;-84
2023/01/07 07:16:42;;;;;;;4.90;4.47;;;;;;;;;;4923606;29;20043;-84
2023/01/07 07:19:10;;;;;;;4.53;4.10;;;;;;;;;;4927247;29;20097;-83
2023/01/07 07:21:39;;;;;;;3.97;3.67;;;;;;;;;;4930048;29;20056;-84
2023/01/07 07:24:10;;;;;;;4.28;3.88;;;;;;;;;;4920322;29;20454;-84
2023/01/07 07:26:37;;;;;;;4.97;3.90;;;;;;;;;;4926005;29;20071;-84
2023/01/07 07:29:05;;;;;;;5.10;4.60;;;;;;;;;;4930970;29;20389;-84
2023/01/07 07:31:33;;;;;;;5.55;5.05;;;;;;;;;;4925988;29;20035;-83
2023/01/07 07:34:01;;;;;;;6.32;4.75;;;;;;;;;;4927142;29;20039;-83
2023/01/07 07:36:28;;;;;;;5.30;4.82;;;;;;;;;;4926700;29;20082;-84
2023/01/07 07:38:56;;;;;;;5.85;5.13;;;;;;;;;;4922372;29;20127;-84
2023/01/07 07:41:23;;;;;;;7.80;6.30;;;;;;;;;;4927651;29;20095;-84
2023/01/07 07:43:51;;;;;;;6.22;5.63;;;;;;;;;;4921488;29;20630;-84
2023/01/07 07:46:18;;;;;;;5.22;4.82;;;;;;;;;;4923124;29;20056;-84
2023/01/07 07:48:48;;;;;;;5.28;4.78;;;;;;;;;;4923182;29;20053;-83
2023/01/07 07:51:16;;;;;;;4.30;3.90;;;;;;;;;;4925555;29;20040;-84
2023/01/07 07:53:43;;;;;;;6.32;5.30;;;;;;;;;;4925295;29;20043;-83
2023/01/07 07:56:13;;;;;;;5.85;5.10;;;;;;;;;;5166720;23;20142;-87
2023/01/07 07:58:41;;;;;;;6.03;4.72;;;;;;;;;;4928641;29;20048;-87
2023/01/07 08:01:09;;;;;;;5.38;4.85;;;;;;;;;;4928293;29;20047;-88
2023/01/07 08:03:37;;;;;;;5.45;4.95;;;;;;;;;;4919261;29;20048;-89
2023/01/07 08:06:04;;;;;;;5.45;4.80;;;;;;;;;;4916725;29;20052;-88
2023/01/07 08:08:32;;;;;;;5.82;4.97;;;;;;;;;;4932630;29;20048;-89
2023/01/07 08:10:59;;;;;;;5.88;5.38;;;;;;;;;;4933194;29;20458;-89
2023/01/07 08:13:30;;;;;;;6.93;4.60;;;;;;;;;;4930627;29;20055;-87
2023/01/07 08:16:09;;;;;;;4.60;4.20;;;;;;;;;;4910973;29;20079;-84
2023/01/07 08:18:38;;;;;;;3.75;3.42;;;;;;;;;;4894467;29;20053;-84
2023/01/07 08:21:06;;;;;;;4.40;3.30;;;;;;;;;;4894768;29;20051;-84
2023/01/07 08:23:33;;;;;;;3.90;3.50;;;;;;;;;;4894558;29;20048;-84
2023/01/07 08:26:01;;;;;;;3.88;3.55;;;;;;;;;;4894549;29;20056;-85
2023/01/07 08:28:30;;;;;;;4.45;4.07;;;;;;;;;;4894445;29;20052;-85
2023/01/07 08:31:01;;;;;;;4.07;3.78;;;;;;;;;;4903323;29;20104;-84
2023/01/07 08:33:29;;;;;;;5.18;4.68;;;;;;;;;;4911593;29;20054;-85
2023/01/07 08:35:56;;;;;;;6.75;5.43;;;;;;;;;;4911752;29;20101;-85
2023/01/07 08:38:25;;;;;;;5.85;5.25;;;;;;;;;;4911713;29;20111;-85
2023/01/07 08:40:52;;;;;;;7.22;4.35;;;;;;;;;;4911420;29;20048;-85
2023/01/07 08:43:22;;;;;;;4.65;4.25;;;;;;;;;;4911674;29;20069;-85
2023/01/07 08:45:50;;;;;;;8.02;5.82;;;;;;;;;;4911179;29;20060;-84
2023/01/07 08:48:18;;;;;;;5.15;4.60;;;;;;;;;;4911969;29;20071;-85
2023/01/07 08:50:51;;;;;;;5.55;5.05;;;;;;;;;;4912870;29;20055;-85
2023/01/07 08:53:19;;;;;;;4.93;4.43;;;;;;;;;;4911839;29;20127;-85
2023/01/07 08:55:47;;;;;;;6.45;3.88;;;;;;;;;;4912969;29;20051;-84
2023/01/07 08:58:14;;;;;;;4.63;4.25;;;;;;;;;;4913312;29;20163;-85
2023/01/07 09:00:42;;;;;;;6.97;4.32;;;;;;;;;;4913015;29;20060;-85
2023/01/07 09:03:09;;;;;;;5.03;4.53;;;;;;;;;;4912912;29;20052;-85
2023/01/07 09:05:36;;;;;;;6.95;4.40;;;;;;;;;;4911537;29;20060;-85
2023/01/07 09:08:04;;;;;;;6.55;4.68;;;;;;;;;;4912011;29;20056;-85
2023/01/07 09:10:32;;;;;;;4.90;4.40;;;;;;;;;;4912831;29;20044;-84
2023/01/07 09:13:02;;;;;;;5.82;4.80;;;;;;;;;;4913816;29;20043;-84
2023/01/07 09:15:29;;;;;;;4.22;3.92;;;;;;;;;;4915948;29;20071;-84
2023/01/07 09:17:57;;;;;;;4.90;4.40;;;;;;;;;;4916619;29;20100;-85
2023/01/07 09:20:24;;;;;;;4.28;3.92;;;;;;;;;;4915216;29;20067;-84
2023/01/07 09:22:52;;;;;;;4.15;3.72;;;;;;;;;;4916718;29;20056;-84
2023/01/07 09:25:19;;;;;;;4.82;4.20;;;;;;;;;;4915967;29;20075;-84
2023/01/07 09:27:48;;;;;;;4.30;3.90;;;;;;;;;;4916441;29;20051;-84
2023/01/07 09:30:16;;;;;;;4.65;4.25;;;;;;;;;;4916266;29;20080;-84
2023/01/07 09:32:44;;;;;;;4.70;4.28;;;;;;;;;;4916347;29;20563;-84
2023/01/07 09:35:12;;;;;;;4.32;4.03;;;;;;;;;;4915205;29;20056;-84
2023/01/07 09:37:39;;;;;;;3.95;3.60;;;;;;;;;;4921303;29;20067;-84
2023/01/07 09:40:08;;;;;;;4.20;3.90;;;;;;;;;;4917021;29;20075;-84
2023/01/07 09:42:57;;;;;;;4.60;4.30;;;;;;;;;;4916951;29;20056;-84
2023/01/07 09:45:28;;;;;;;4.22;3.85;;;;;;;;;;4920788;29;20079;-83
2023/01/07 09:48:00;;;;;;;4.78;4.03;;;;;;;;;;4915600;29;20056;-84
2023/01/07 09:50:46;;;;;;;4.75;4.32;;;;;;;;;;4917244;29;20074;-83
2023/01/07 09:53:17;;;;;;;3.60;3.30;;;;;;;;;;4928492;29;20059;-82
2023/01/07 09:55:47;;;;;;;7.57;6.97;;;;;;;;;;4922889;29;20108;-83
2023/01/07 09:58:34;;;;;;;3.45;3.15;;;;;;;;;;4922048;29;20079;-84
2023/01/07 10:01:16;;;;;;;3.53;3.30;;;;;;;;;;4919489;29;20052;-84
2023/01/07 10:03:50;;;;;;;3.70;3.40;;;;;;;;;;4916802;29;20052;-84
2023/01/07 10:06:31;;;;;;;4.28;3.72;;;;;;;;;;4916592;29;20058;-84
2023/01/07 10:09:28;;;;;;;3.55;3.25;;;;;;;;;;4916304;29;20571;-85
2023/01/07 10:12:08;;;;;;;3.22;2.90;;;;;;;;;;4915918;29;20059;-85
2023/01/07 10:14:44;;;;;;;3.13;2.92;;;;;;;;;;4914905;29;20056;-84
2023/01/07 10:17:20;;;;;;;2.88;2.67;;;;;;;;;;4914772;29;20748;-84
2023/01/07 10:19:58;;;;;;;2.65;2.45;;;;;;;;;;4916117;29;20048;-85
2023/01/07 10:22:29;;;;;;;4.40;2.78;;;;;;;;;;4915826;29;20427;-85
2023/01/07 10:24:58;;;;;;;2.92;2.60;;;;;;;;;;4914796;29;20056;-84
2023/01/07 10:27:38;;;;;;;2.22;2.13;;;;;;;;;;4915696;29;20393;-85
2023/01/07 10:30:11;;;;;;;2.42;2.22;;;;;;;;;;4915857;29;20044;-85
2023/01/07 10:32:38;;;;;;;2.60;2.42;;;;;;;;;;4915880;29;20504;-84
2023/01/07 10:35:07;;;;;;;2.70;2.55;;;;;;;;;;4914350;29;20494;-83
2023/01/07 10:37:39;;;;;;;2.20;2.10;;;;;;;;;;4912452;29;20048;-84
2023/01/07 10:40:25;;;;;;;2.65;2.45;;;;;;;;;;4915017;29;20040;-84
2023/01/07 10:43:01;;;;;;;2.13;2.03;;;;;;;;;;4916230;29;20119;-85
2023/01/07 10:45:50;;;;;;;2.90;2.70;;;;;;;;;;4913963;29;20135;-83
2023/01/07 10:48:35;;;;;;;2.60;2.50;;;;;;;;;;4915888;29;20048;-83
2023/01/07 10:51:17;;;;;;;2.60;2.40;;;;;;;;;;4914079;29;20048;-84
2023/01/07 10:54:02;;;;;;;2.70;2.50;;;;;;;;;;4916125;29;20100;-84
2023/01/07 10:56:36;;;;;;;2.30;2.15;;;;;;;;;;4915685;29;20052;-84
2023/01/07 10:59:04;;;;;;;2.78;2.58;;;;;;;;;;4914438;29;20060;-83
2023/01/07 11:01:36;;;;;;;2.30;2.10;;;;;;;;;;4915157;29;20523;-86
2023/01/07 11:04:04;;;;;;;4.53;2.90;;;;;;;;;;4915044;29;20048;-84
2023/01/07 11:06:40;;;;;;;2.47;2.28;;;;;;;;;;4914378;29;20056;-84
2023/01/07 11:09:10;;;;;;;1.70;1.60;;;;;;;;;;4914304;29;20052;-84
2023/01/07 11:11:38;;;;;;;1.60;1.50;;;;;;;;;;4907259;29;20075;-83
2023/01/07 11:14:14;;;;;;;2.10;2.00;;;;;;;;;;4914284;29;20043;-83
2023/01/07 11:16:45;;;;;;;2.30;2.20;;;;;;;;;;4914665;29;20044;-84
2023/01/07 11:19:12;;;;;;;2.00;1.90;;;;;;;;;;4914741;29;20047;-84
2023/01/07 11:21:41;;;;;;;1.80;1.70;;;;;;;;;;4914690;29;20068;-83
2023/01/07 11:24:32;;;;;;;2.40;2.27;;;;;;;;;;4914594;29;20206;-85
2023/01/07 11:27:12;;;;;;;1.83;1.73;;;;;;;;;;4912895;29;20063;-85
2023/01/07 11:29:44;;;;;;;2.22;2.03;;;;;;;;;;4914496;29;20051;-84
2023/01/07 11:32:21;;;;;;;2.05;1.95;;;;;;;;;;4914327;29;20103;-84
2023/01/07 11:34:52;;;;;;;1.90;1.80;;;;;;;;;;4913540;29;20075;-84
2023/01/07 11:37:37;;;;;;;1.90;1.80;;;;;;;;;;4913934;29;20052;-84
2023/01/07 11:40:16;;;;;;;1.88;1.80;;;;;;;;;;4914633;29;20056;-84
2023/01/07 11:42:55;;;;;;;1.92;1.83;;;;;;;;;;4914328;29;20052;-84
2023/01/07 11:45:28;;;;;;;2.10;2.00;;;;;;;;;;4914112;29;20055;-85
2023/01/07 11:47:59;;;;;;;2.20;2.10;;;;;;;;;;4914257;29;20135;-84
2023/01/07 11:50:29;;;;;;;1.70;1.60;;;;;;;;;;4914863;29;20048;-84
2023/01/07 11:52:58;;;;;;;1.70;1.60;;;;;;;;;;4914514;29;20119;-84
2023/01/07 11:55:26;;;;;;;1.77;1.70;;;;;;;;;;4913789;29;20082;-85
2023/01/07 11:57:54;;;;;;;1.85;1.75;;;;;;;;;;4913967;29;20127;-85
2023/01/07 12:00:42;;;;;;;2.17;2.00;;;;;;;;;;4912616;29;20048;-84
2023/01/07 12:03:11;;;;;;;2.17;2.08;;;;;;;;;;4913692;29;20088;-84
2023/01/07 12:05:39;;;;;;;2.38;2.20;;;;;;;;;;4913478;29;20075;-83
2023/01/07 12:08:18;;;;;;;2.20;2.00;;;;;;;;;;4913710;29;20091;-84
2023/01/07 12:10:45;;;;;;;2.13;2.03;;;;;;;;;;4912414;29;20048;-85
2023/01/07 12:13:22;;;;;;;1.92;1.83;;;;;;;;;;4913591;29;20595;-84
2023/01/07 12:15:52;;;;;;;2.00;1.90;;;;;;;;;;4913886;29;20056;-83
2023/01/07 12:18:49;;;;;;;2.20;2.00;;;;;;;;;;4914165;29;20068;-83
2023/01/07 12:21:39;;;;;;;2.25;2.05;;;;;;;;;;4909645;29;20099;-82
2023/01/07 12:24:12;;;;;;;1.95;1.85;;;;;;;;;;4913817;29;20048;-84
2023/01/07 12:26:50;;;;;;;4.05;2.22;;;;;;;;;;4913880;29;20419;-84
2023/01/07 12:29:37;;;;;;;2.00;1.88;;;;;;;;;;4914088;29;20464;-85
2023/01/07 12:32:12;;;;;;;1.95;1.85;;;;;;;;;;4911023;29;20095;-84
2023/01/07 14:00:47;;;;;;;3.45;3.15;;;;;;;;;;5079979;27;20837;-80
2023/01/07 14:03:39;;;;;;;4.25;3.85;;;;;;;;;;5042211;28;20056;-80
2023/01/07 14:06:22;;;;;;;4.18;3.88;;;;;;;;;;5062547;28;20445;-80
2023/01/07 14:08:50;;;;;;;3.78;3.47;;;;;;;;;;5056162;28;21203;-80
2023/01/07 14:11:18;;;;;;;3.33;3.08;;;;;;;;;;5060549;28;20051;-80
2023/01/07 14:13:54;;;;;;;2.90;2.70;;;;;;;;;;5056451;28;20072;-80
2023/01/07 14:16:34;;;;;;;2.97;2.67;;;;;;;;;;5062243;28;20052;-80
2023/01/07 14:19:24;;;;;;;2.90;2.70;;;;;;;;;;5059757;28;20049;-79
2023/01/07 14:21:55;;;;;;;3.10;2.78;;;;;;;;;;5041050;28;20057;-80
2023/01/07 14:24:42;;;;;;;3.70;3.40;;;;;;;;;;5048563;28;20045;-80
2023/01/07 14:27:16;;;;;;;5.72;3.88;;;;;;;;;;5028451;28;20096;-80
2023/01/07 14:29:47;;;;;;;7.82;5.47;;;;;;;;;;5058957;28;20053;-80
2023/01/07 14:32:26;;;;;;;11.70;6.97;;;;;;;;;;5069242;28;20059;-80
2023/01/07 14:34:59;;;;;;;15.05;5.47;;;;;;;;;;5072329;28;20434;-80
2023/01/07 14:37:30;;;;;;;10.02;6.43;;;;;;;;;;5064816;28;20090;-80
2023/01/07 14:39:57;;;;;;;6.70;5.83;;;;;;;;;;5063505;28;20754;-80
2023/01/07 14:42:26;;;;;;;6.00;5.22;;;;;;;;;;5066381;28;20448;-80
2023/01/07 14:44:53;;;;;;;8.43;6.40;;;;;;;;;;5067185;28;20102;-80
2023/01/07 14:47:39;;;;;;;8.05;5.07;;;;;;;;;;5067196;28;20139;-80
2023/01/07 14:50:09;;;;;;;5.13;4.70;;;;;;;;;;5065128;28;20433;-80
2023/01/07 14:52:37;;;;;;;5.03;4.63;;;;;;;;;;5064470;28;20045;-80
2023/01/07 14:55:13;;;;;;;5.47;4.97;;;;;;;;;;5064642;28;20064;-80
2023/01/07 14:57:40;;;;;;;7.13;6.53;;;;;;;;;;5064415;28;20048;-80
2023/01/07 15:00:23;;;;;;;7.10;6.40;;;;;;;;;;5064068;28;20059;-79
2023/01/07 15:03:07;;;;;;;5.45;4.82;;;;;;;;;;5065172;28;20052;-80
2023/01/07 15:05:53;;;;;;;5.03;4.63;;;;;;;;;;5065707;28;20052;-80
2023/01/07 15:16:52;;;;;;;8.48;6.15;;;;;;;;;;5051931;28;20567;-80
2023/01/07 15:19:20;;;;;;;5.60;4.68;;;;;;;;;;5052794;28;20063;-80
2023/01/07 15:21:50;;;;;;;5.32;4.85;;;;;;;;;;5053232;28;20441;-80
2023/01/07 15:24:36;;;;;;;4.80;4.30;;;;;;;;;;5052131;28;20052;-80
2023/01/07 15:27:16;;;;;;;4.45;4.03;;;;;;;;;;5052072;28;20132;-80
2023/01/07 15:29:59;;;;;;;6.35;5.32;;;;;;;;;;5050575;28;20299;-80
2023/01/07 15:32:45;;;;;;;4.38;4.07;;;;;;;;;;5050384;28;20073;-80
2023/01/07 15:35:18;;;;;;;8.38;4.78;;;;;;;;;;5051447;28;20073;-80
2023/01/07 15:37:47;;;;;;;5.95;5.38;;;;;;;;;;5051148;28;20144;-81
2023/01/07 15:40:22;;;;;;;10.38;8.40;;;;;;;;;;5051468;28;20041;-80
2023/01/07 15:42:51;;;;;;;9.52;7.30;;;;;;;;;;5052110;28;20049;-80
2023/01/07 15:45:22;;;;;;;5.57;5.07;;;;;;;;;;5052617;28;20045;-80
2023/01/07 15:47:50;;;;;;;5.20;4.70;;;;;;;;;;5053520;28;20049;-80
2023/01/07 15:50:23;;;;;;;6.70;5.75;;;;;;;;;;5058743;28;20057;-80
2023/01/07 15:52:53;;;;;;;10.93;7.70;;;;;;;;;;5064070;28;20053;-80
2023/01/07 15:55:25;;;;;;;13.15;10.63;;;;;;;;;;5060809;28;20060;-80
2023/01/07 15:57:56;;;;;;;10.35;8.02;;;;;;;;;;5053347;28;20048;-80
2023/01/07 16:00:24;;;;;;;6.65;5.45;;;;;;;;;;5052025;28;20049;-80
2023/01/07 16:02:52;;;;;;;5.80;5.28;;;;;;;;;;5050881;28;20053;-80
2023/01/07 16:05:19;;;;;;;10.82;7.10;;;;;;;;;;5050774;28;20049;-80
2023/01/07 16:07:52;;;;;;;8.10;6.38;;;;;;;;;;5051241;28;20124;-80
2023/01/07 16:10:19;;;;;;;6.53;5.82;;;;;;;;;;5052313;28;20060;-80
2023/01/07 16:12:57;;;;;;;6.53;5.25;;;;;;;;;;5051115;28;20055;-80
2023/01/07 16:15:31;;;;;;;5.75;5.25;;;;;;;;;;5062239;28;20139;-80
2023/01/07 16:18:03;;;;;;;5.05;4.55;;;;;;;;;;5062886;28;20053;-80
2023/01/07 16:20:32;;;;;;;5.53;5.03;;;;;;;;;;5053556;28;20502;-80
2023/01/07 16:23:08;;;;;;;6.50;5.88;;;;;;;;;;5048102;28;20123;-80
2023/01/07 16:25:44;;;;;;;5.97;5.38;;;;;;;;;;5049607;28;20065;-79
2023/01/07 16:28:15;;;;;;;7.57;6.72;;;;;;;;;;5049504;28;20047;-80
2023/01/07 16:30:43;;;;;;;6.82;6.10;;;;;;;;;;5050118;28;20068;-81
2023/01/07 16:33:14;;;;;;;8.75;7.43;;;;;;;;;;5049105;28;20057;-80
2023/01/07 16:35:43;;;;;;;9.40;8.18;;;;;;;;;;5053290;28;20041;-79
2023/01/07 16:38:12;;;;;;;12.25;10.00;;;;;;;;;;5054769;28;20044;-80
2023/01/07 16:40:41;;;;;;;11.45;9.80;;;;;;;;;;5055927;28;20037;-80
2023/01/07 16:43:31;;;;;;;17.98;11.25;;;;;;;;;;5055442;28;20083;-80
2023/01/07 16:46:08;;;;;;;22.02;13.55;;;;;;;;;;5050991;28;20056;-81
2023/01/07 16:48:36;;;;;;;19.40;12.48;;;;;;;;;;5052463;28;20045;-81